createdAt,value
2023-04-22T00:01:25.996Z,2.42
2023-04-22T00:03:53.549Z,3.80
2023-04-22T00:06:20.937Z,1.88
2023-04-22T00:08:50.878Z,2.30
2023-04-22T00:11:18.125Z,2.17
2023-04-22T00:13:45.449Z,2.15
2023-04-22T00:16:12.749Z,1.93
2023-04-22T00:18:40.043Z,2.10
2023-04-22T00:21:07.875Z,2.10
2023-04-22T00:23:35.165Z,3.25
2023-04-22T00:26:02.705Z,4.20
2023-04-22T00:28:29.956Z,2.45
2023-04-22T00:30:58.855Z,2.30
2023-04-22T00:33:26.169Z,2.58
2023-04-22T00:35:54.740Z,1.70
2023-04-22T00:38:24.288Z,2.03
2023-04-22T00:40:51.516Z,3.28
2023-04-22T00:43:18.740Z,1.85
2023-04-22T00:45:46.125Z,1.83
2023-04-22T00:48:14.405Z,2.85
2023-04-22T00:50:41.867Z,2.33
2023-04-22T00:53:09.185Z,2.30
2023-04-22T00:55:38.897Z,2.43
2023-04-22T00:58:06.292Z,3.15
2023-04-22T01:00:33.736Z,3.03
2023-04-22T01:03:01.250Z,3.00
2023-04-22T01:05:32.282Z,2.70
2023-04-22T01:07:59.516Z,2.60
2023-04-22T01:10:26.837Z,3.08
2023-04-22T01:12:54.049Z,2.67
2023-04-22T01:15:21.364Z,2.80
2023-04-22T01:17:48.636Z,2.67
2023-04-22T01:20:16.448Z,2.43
2023-04-22T01:22:45.713Z,2.53
2023-04-22T01:25:13.190Z,2.85
2023-04-22T01:27:40.932Z,4.70
2023-04-22T01:30:08.814Z,2.13
2023-04-22T01:32:36.318Z,2.75
2023-04-22T01:35:03.831Z,2.63
2023-04-22T01:37:31.128Z,1.90
2023-04-22T01:39:59.355Z,2.03
2023-04-22T01:44:53.756Z,2.10
2023-04-22T01:47:20.987Z,3.15
2023-04-22T01:49:48.223Z,2.13
2023-04-22T01:52:15.429Z,2.17
2023-04-22T01:54:42.674Z,2.05
2023-04-22T01:57:11.706Z,3.00
2023-04-22T01:59:39.096Z,3.28
2023-04-22T02:02:06.726Z,4.35
2023-04-22T02:04:34.026Z,4.22
2023-04-22T02:07:01.442Z,2.80
2023-04-22T02:09:28.662Z,2.60
2023-04-22T02:11:55.902Z,2.05
2023-04-22T02:14:23.105Z,2.10
2023-04-22T02:16:50.363Z,2.88
2023-04-22T02:19:17.569Z,2.20
2023-04-22T02:21:44.982Z,1.92
2023-04-22T02:24:12.227Z,2.67
2023-04-22T02:26:39.457Z,2.87
2023-04-22T02:29:06.667Z,2.63
2023-04-22T02:31:33.981Z,2.13
2023-04-22T02:34:01.236Z,2.87
2023-04-22T02:36:32.467Z,2.55
2023-04-22T02:39:00.155Z,2.83
2023-04-22T02:41:27.400Z,3.55
2023-04-22T02:43:54.649Z,2.25
2023-04-22T02:46:21.923Z,2.07
2023-04-22T02:48:49.551Z,2.23
2023-04-22T02:51:16.776Z,2.28
2023-04-22T02:53:43.984Z,2.80
2023-04-22T02:56:11.285Z,2.10
2023-04-22T02:58:38.575Z,3.33
2023-04-22T03:01:06.127Z,2.77
2023-04-22T03:03:33.518Z,2.42
2023-04-22T03:06:00.978Z,3.30
2023-04-22T03:08:28.196Z,2.20
2023-04-22T03:10:55.624Z,3.15
2023-04-22T03:13:22.884Z,3.25
2023-04-22T03:15:50.117Z,2.20
2023-04-22T03:18:17.346Z,3.53
2023-04-22T03:20:44.579Z,3.05
2023-04-22T03:23:11.799Z,2.33
2023-04-22T03:25:39.209Z,1.95
2023-04-22T03:28:06.434Z,2.43
2023-04-22T03:30:33.732Z,2.65
2023-04-22T03:33:01.049Z,1.97
2023-04-22T03:35:28.297Z,2.30
2023-04-22T03:37:55.602Z,2.60
2023-04-22T03:40:22.848Z,2.70
2023-04-22T03:42:50.080Z,2.45
2023-04-22T03:45:17.566Z,2.38
2023-04-22T03:47:44.829Z,2.50
2023-04-22T03:50:12.313Z,3.07
2023-04-22T03:52:39.542Z,2.63
2023-04-22T03:55:06.907Z,2.88
2023-04-22T03:57:34.139Z,2.10
2023-04-22T04:00:01.359Z,2.90
2023-04-22T04:02:28.724Z,2.28
2023-04-22T04:04:56.151Z,2.45
2023-04-22T04:07:23.628Z,2.10
2023-04-22T04:09:50.886Z,2.20
2023-04-22T04:12:18.130Z,2.08
2023-04-22T04:14:45.471Z,1.88
2023-04-22T04:17:14.156Z,2.57
2023-04-22T04:19:41.870Z,2.05
2023-04-22T04:22:10.627Z,3.17
2023-04-22T04:24:42.087Z,2.30
2023-04-22T04:27:09.635Z,2.58
2023-04-22T04:29:36.943Z,3.37
2023-04-22T04:32:04.838Z,2.07
2023-04-22T04:34:32.386Z,2.85
2023-04-22T04:36:59.637Z,1.83
2023-04-22T04:39:29.177Z,2.00
2023-04-22T04:41:58.741Z,2.20
2023-04-22T04:44:26.450Z,2.58
2023-04-22T04:46:54.931Z,2.85
2023-04-22T04:49:22.844Z,2.05
2023-04-22T04:51:50.330Z,2.10
2023-04-22T04:54:17.637Z,2.67
2023-04-22T04:56:44.967Z,3.27
2023-04-22T04:59:12.204Z,3.00
2023-04-22T05:01:39.621Z,2.70
2023-04-22T05:04:07.027Z,3.90
2023-04-22T05:06:34.398Z,2.88
2023-04-22T05:09:01.651Z,2.20
2023-04-22T05:11:29.067Z,2.45
2023-04-22T05:16:23.535Z,2.47
2023-04-22T05:18:50.876Z,2.60
2023-04-22T05:21:18.200Z,4.57
2023-04-22T05:23:45.430Z,3.97
2023-04-22T05:26:12.719Z,3.17
2023-04-22T05:28:39.912Z,4.93
2023-04-22T05:31:11.620Z,6.53
2023-04-22T05:33:38.883Z,6.55
2023-04-22T05:36:06.345Z,7.10
2023-04-22T05:38:33.579Z,7.03
2023-04-22T05:41:00.806Z,12.75
2023-04-22T05:43:28.015Z,14.82
2023-04-22T05:45:55.359Z,16.10
2023-04-22T05:48:22.650Z,16.87
2023-04-22T05:50:49.908Z,13.23
2023-04-22T05:53:18.121Z,13.80
2023-04-22T05:58:12.521Z,13.03
2023-04-22T06:00:39.790Z,12.77
2023-04-22T06:03:07.128Z,12.60
2023-04-22T06:05:34.538Z,16.52
2023-04-22T06:08:01.766Z,13.00
2023-04-22T06:10:29.090Z,13.43
2023-04-22T06:12:56.380Z,11.80
2023-04-22T06:15:23.611Z,12.23
2023-04-22T06:17:50.868Z,13.50
2023-04-22T06:20:18.252Z,12.93
2023-04-22T06:22:45.524Z,12.20
2023-04-22T06:25:12.763Z,17.03
2023-04-22T06:27:40.060Z,12.95
2023-04-22T06:30:07.656Z,13.17
2023-04-22T06:32:34.924Z,14.02
2023-04-22T06:35:02.142Z,12.83
2023-04-22T06:37:29.391Z,27.10
2023-04-22T06:39:56.689Z,14.15
2023-04-22T06:42:23.895Z,14.30
2023-04-22T06:44:51.111Z,16.20
2023-04-22T06:47:18.433Z,12.23
2023-04-22T06:49:45.789Z,14.17
2023-04-22T06:52:13.051Z,16.03
2023-04-22T06:54:40.268Z,16.25
2023-04-22T06:57:08.149Z,12.23
2023-04-22T06:59:35.462Z,12.70
2023-04-22T07:02:02.809Z,10.30
2023-04-22T07:04:31.747Z,12.23
2023-04-22T07:06:59.047Z,9.55
2023-04-22T07:09:26.292Z,10.77
2023-04-22T07:11:53.534Z,12.45
2023-04-22T07:14:20.897Z,10.98
2023-04-22T07:16:48.317Z,12.40
2023-04-22T07:19:15.701Z,8.68
2023-04-22T07:21:43.132Z,6.03
2023-04-22T07:24:13.158Z,9.23
2023-04-22T07:26:44.090Z,9.45
2023-04-22T07:29:13.791Z,6.05
2023-04-22T07:31:41.091Z,8.60
2023-04-22T07:34:10.593Z,13.68
2023-04-22T07:36:38.051Z,6.55
2023-04-22T07:39:05.313Z,8.83
2023-04-22T07:41:32.591Z,5.53
2023-04-22T07:44:00.581Z,7.13
2023-04-22T07:46:27.889Z,7.32
2023-04-22T07:48:55.298Z,6.33
2023-04-22T07:51:22.562Z,7.60
2023-04-22T07:53:49.777Z,7.72
2023-04-22T07:56:16.995Z,7.65
2023-04-22T07:58:44.268Z,10.05
2023-04-22T08:01:11.592Z,7.47
2023-04-22T08:03:39.090Z,6.97
2023-04-22T08:06:06.620Z,8.43
2023-04-22T08:08:33.898Z,7.20
2023-04-22T08:11:01.103Z,7.13
2023-04-22T08:13:28.325Z,4.75
2023-04-22T08:15:58.141Z,4.80
2023-04-22T08:18:25.588Z,6.15
2023-04-22T08:20:52.808Z,9.77
2023-04-22T08:23:20.048Z,8.70
2023-04-22T08:25:47.265Z,5.95
2023-04-22T08:28:14.992Z,6.15
2023-04-22T08:30:42.273Z,9.38
2023-04-22T08:33:09.543Z,5.57
2023-04-22T08:35:37.098Z,6.22
2023-04-22T08:38:04.447Z,5.50
2023-04-22T08:40:31.728Z,3.40
2023-04-22T08:42:59.029Z,5.65
2023-04-22T08:45:26.406Z,6.87
2023-04-22T08:47:54.709Z,5.87
2023-04-22T08:50:22.524Z,8.65
2023-04-22T08:52:52.344Z,5.60
2023-04-22T08:55:20.514Z,8.52
2023-04-22T09:00:15.224Z,6.30
2023-04-22T09:02:45.081Z,6.53
2023-04-22T09:05:14.238Z,5.53
2023-04-22T09:07:42.107Z,9.43
2023-04-22T09:10:11.814Z,4.75
2023-04-22T09:12:39.714Z,10.75
2023-04-22T09:15:08.606Z,9.38
2023-04-22T09:17:38.364Z,10.20
2023-04-22T09:20:07.282Z,11.70
2023-04-22T09:22:39.316Z,8.32
2023-04-22T09:25:06.853Z,9.20
2023-04-22T09:27:36.376Z,12.43
2023-04-22T09:30:08.824Z,10.07
2023-04-22T09:32:36.135Z,10.00
2023-04-22T09:35:06.002Z,11.30
2023-04-22T09:37:46.329Z,10.93
2023-04-22T09:40:16.881Z,9.85
2023-04-22T09:42:54.404Z,16.27
2023-04-22T09:45:28.493Z,21.88
2023-04-22T09:47:57.148Z,17.25
2023-04-22T09:50:28.100Z,13.32
2023-04-22T09:52:56.538Z,16.08
2023-04-22T09:55:25.090Z,13.63
2023-04-22T09:57:55.688Z,17.52
2023-04-22T10:00:28.344Z,19.13
2023-04-22T10:02:55.688Z,27.00
2023-04-22T10:05:23.024Z,27.07
2023-04-22T10:07:50.569Z,40.90
2023-04-22T10:10:17.859Z,28.67
2023-04-22T10:12:45.352Z,28.47
2023-04-22T10:15:12.648Z,23.13
2023-04-22T10:17:40.411Z,22.97
2023-04-22T10:20:13.941Z,21.33
2023-04-22T10:22:44.322Z,21.58
2023-04-22T10:25:22.479Z,21.60
2023-04-22T10:30:27.471Z,21.10
2023-04-22T10:32:54.905Z,17.23
2023-04-22T10:35:29.171Z,19.25
2023-04-22T10:37:56.473Z,18.98
2023-04-22T10:40:23.841Z,22.40
2023-04-22T10:42:52.407Z,19.07
2023-04-22T10:45:20.216Z,21.50
2023-04-22T10:47:47.493Z,17.65
2023-04-22T10:50:17.924Z,16.95
2023-04-22T10:52:47.970Z,13.55
2023-04-22T10:55:15.484Z,15.60
2023-04-22T10:57:46.455Z,15.63
2023-04-22T11:00:45.842Z,14.75
2023-04-22T11:03:25.711Z,20.02
2023-04-22T11:06:12.954Z,18.02
2023-04-22T11:08:44.473Z,15.57
2023-04-22T11:11:13.649Z,19.75
2023-04-22T11:13:44.128Z,12.80
2023-04-22T11:16:11.754Z,15.57
2023-04-22T11:18:39.312Z,17.90
2023-04-22T11:21:08.480Z,22.30
2023-04-22T11:23:39.253Z,22.33
2023-04-22T11:26:07.614Z,21.08
2023-04-22T11:28:34.860Z,22.90
2023-04-22T11:31:06.587Z,17.55
2023-04-22T11:33:35.030Z,16.92
2023-04-22T11:36:04.664Z,23.23
2023-04-22T11:38:33.137Z,16.55
2023-04-22T11:41:00.533Z,13.95
2023-04-22T11:43:27.831Z,20.73
2023-04-22T11:45:57.027Z,19.17
2023-04-22T11:48:24.565Z,19.98
2023-04-22T11:51:07.436Z,14.38
2023-04-22T11:53:34.655Z,19.75
2023-04-22T11:56:04.087Z,17.48
2023-04-22T11:58:31.535Z,18.73
2023-04-22T12:00:59.336Z,17.13
2023-04-22T12:03:27.911Z,13.45
2023-04-22T12:05:58.514Z,11.88
2023-04-22T12:08:33.260Z,12.90
2023-04-22T12:11:01.967Z,9.23
2023-04-22T12:13:30.428Z,9.35
2023-04-22T12:16:02.551Z,12.98
2023-04-22T12:18:30.895Z,11.10
2023-04-22T12:21:01.776Z,12.50
2023-04-22T12:23:28.987Z,11.70
2023-04-22T12:25:56.313Z,12.75
2023-04-22T12:28:23.837Z,8.63
2023-04-22T12:30:51.125Z,16.77
2023-04-22T12:33:18.407Z,12.30
2023-04-22T12:35:47.102Z,12.27
2023-04-22T12:38:14.324Z,8.82
2023-04-22T12:40:41.512Z,10.68
2023-04-22T12:43:08.752Z,10.60
2023-04-22T12:45:36.003Z,8.73
2023-04-22T12:48:03.279Z,9.82
2023-04-22T12:50:30.598Z,10.00
2023-04-22T12:52:57.860Z,12.93
2023-04-22T12:55:25.303Z,13.00
2023-04-22T12:57:52.788Z,16.08
2023-04-22T13:00:20.708Z,11.05
2023-04-22T13:02:48.911Z,10.02
2023-04-22T13:05:16.961Z,11.57
2023-04-22T13:07:45.441Z,11.60
2023-04-22T13:10:15.559Z,10.20
2023-04-22T13:12:43.346Z,16.17
2023-04-22T13:15:11.413Z,10.15
2023-04-22T13:17:39.203Z,10.18
2023-04-22T13:20:09.515Z,8.82
2023-04-22T13:22:36.925Z,9.25
2023-04-22T13:25:04.379Z,13.27
2023-04-22T13:27:31.696Z,12.45
2023-04-22T13:29:59.013Z,9.83
2023-04-22T13:32:26.337Z,14.17
2023-04-22T13:34:53.607Z,13.43
2023-04-22T13:37:21.518Z,9.57
2023-04-22T13:39:49.430Z,14.95
2023-04-22T13:42:16.948Z,8.95
2023-04-22T13:44:44.197Z,13.13
2023-04-22T13:47:11.888Z,15.45
2023-04-22T13:49:39.500Z,9.80
2023-04-22T13:52:06.926Z,11.88
2023-04-22T13:54:34.181Z,12.15
2023-04-22T13:57:03.069Z,10.88
2023-04-22T13:59:31.792Z,10.43
2023-04-22T14:01:59.012Z,9.10
2023-04-22T14:04:26.406Z,12.52
2023-04-22T14:06:53.682Z,12.15
2023-04-22T14:09:20.941Z,11.77
2023-04-22T14:11:48.172Z,12.63
2023-04-22T14:14:15.399Z,9.00
2023-04-22T14:16:42.669Z,11.63
2023-04-22T14:19:10.219Z,8.77
2023-04-22T14:21:37.465Z,13.55
2023-04-22T14:24:04.768Z,7.38
2023-04-22T14:26:32.700Z,11.13
2023-04-22T14:29:00.071Z,9.20
2023-04-22T14:31:27.384Z,10.47
2023-04-22T14:33:54.749Z,7.60
2023-04-22T14:36:22.014Z,10.90
2023-04-22T14:38:49.297Z,7.50
2023-04-22T14:41:16.574Z,7.73
2023-04-22T14:43:43.863Z,6.78
2023-04-22T14:46:11.102Z,8.27
2023-04-22T14:48:39.429Z,6.10
2023-04-22T14:51:06.733Z,7.25
2023-04-22T14:53:34.488Z,8.25
2023-04-22T14:56:01.742Z,9.70
2023-04-22T14:58:31.538Z,7.43
2023-04-22T15:00:59.937Z,6.57
2023-04-22T15:03:27.591Z,8.52
2023-04-22T15:05:55.800Z,7.72
2023-04-22T15:08:25.224Z,6.45
2023-04-22T15:10:54.705Z,7.30
2023-04-22T15:13:22.204Z,9.70
2023-04-22T15:15:49.442Z,6.10
2023-04-22T15:18:16.787Z,6.90
2023-04-22T15:20:44.048Z,7.17
2023-04-22T15:23:11.343Z,7.60
2023-04-22T15:25:38.757Z,7.80
2023-04-22T15:28:06.106Z,11.48
2023-04-22T15:30:33.346Z,13.97
2023-04-22T15:33:00.671Z,8.02
2023-04-22T15:35:27.935Z,9.10
2023-04-22T15:37:57.494Z,9.77
2023-04-22T15:40:24.885Z,7.85
2023-04-22T15:42:52.152Z,13.37
2023-04-22T15:45:21.396Z,18.63
2023-04-22T15:47:48.686Z,16.85
2023-04-22T15:50:16.474Z,16.40
2023-04-22T15:52:43.697Z,18.45
2023-04-22T15:55:11.082Z,16.45
2023-04-22T15:57:38.351Z,13.03
2023-04-22T16:00:12.047Z,7.03
2023-04-22T16:02:40.737Z,12.00
2023-04-22T16:05:08.277Z,10.68
2023-04-22T16:07:35.715Z,13.47
2023-04-22T16:10:03.093Z,9.93
2023-04-22T16:12:32.019Z,12.23
2023-04-22T16:15:00.779Z,9.50
2023-04-22T16:17:28.081Z,7.97
2023-04-22T16:19:55.792Z,9.50
2023-04-22T16:22:23.137Z,18.83
2023-04-22T16:24:50.514Z,16.70
2023-04-22T16:27:19.335Z,21.30
2023-04-22T16:29:46.983Z,12.27
2023-04-22T16:32:14.292Z,27.67
2023-04-22T16:34:41.544Z,17.37
2023-04-22T16:37:08.836Z,14.95
2023-04-22T16:39:36.044Z,20.73
2023-04-22T16:42:03.298Z,13.60
2023-04-22T16:44:30.602Z,12.70
2023-04-22T16:46:57.838Z,11.50
2023-04-22T16:49:25.188Z,11.55
2023-04-22T16:51:52.448Z,11.33
2023-04-22T16:54:19.724Z,18.17
2023-04-22T16:56:46.933Z,13.90
2023-04-22T16:59:14.502Z,9.82
2023-04-22T17:01:42.157Z,14.50
2023-04-22T17:04:09.559Z,12.88
2023-04-22T17:06:39.618Z,16.73
2023-04-22T17:09:07.341Z,14.43
2023-04-22T17:11:34.582Z,14.13
2023-04-22T17:14:01.871Z,16.90
2023-04-22T17:16:29.146Z,12.63
2023-04-22T17:18:56.454Z,11.77
2023-04-22T17:21:23.679Z,12.57
2023-04-22T17:23:51.210Z,13.98
2023-04-22T17:26:18.536Z,14.80
2023-04-22T17:28:45.823Z,15.07
2023-04-22T17:31:13.589Z,11.40
2023-04-22T17:33:41.246Z,14.75
2023-04-22T17:36:08.745Z,10.57
2023-04-22T17:38:38.325Z,12.98
2023-04-22T17:41:06.287Z,10.32
2023-04-22T17:43:33.531Z,11.52
2023-04-22T17:46:00.733Z,11.32
2023-04-22T17:48:27.970Z,10.65
2023-04-22T17:50:55.337Z,11.43
2023-04-22T17:53:22.663Z,12.23
2023-04-22T17:55:49.927Z,9.53
2023-04-22T17:58:17.169Z,9.83
2023-04-22T18:00:44.480Z,9.82
2023-04-22T18:03:11.860Z,7.57
2023-04-22T18:05:43.208Z,14.18
2023-04-22T18:08:10.955Z,9.20
2023-04-22T18:10:38.890Z,37.85
2023-04-22T18:13:06.810Z,43.90
2023-04-22T18:15:34.039Z,33.03
2023-04-22T18:18:01.426Z,25.98
2023-04-22T18:20:28.747Z,30.77
2023-04-22T18:22:56.528Z,24.33
2023-04-22T18:25:24.398Z,24.75
2023-04-22T18:27:54.996Z,24.10
2023-04-22T18:30:22.832Z,21.92
2023-04-22T18:32:50.310Z,21.42
2023-04-22T18:35:17.578Z,22.77
2023-04-22T18:37:47.342Z,22.00
2023-04-22T18:40:15.008Z,23.00
2023-04-22T18:42:44.732Z,29.17
2023-04-22T18:45:12.617Z,22.75
2023-04-22T18:47:39.996Z,22.10
2023-04-22T18:50:07.656Z,20.33
2023-04-22T18:52:37.165Z,23.40
2023-04-22T18:55:04.585Z,22.88
2023-04-22T18:57:31.869Z,21.40
2023-04-22T18:59:59.128Z,21.05
2023-04-22T19:02:26.492Z,19.57
2023-04-22T19:04:54.277Z,17.67
2023-04-22T19:07:21.664Z,20.85
2023-04-22T19:09:48.963Z,18.27
2023-04-22T19:12:19.032Z,19.50
2023-04-22T19:14:47.910Z,18.35
2023-04-22T19:17:15.397Z,22.35
2023-04-22T19:19:42.902Z,15.83
2023-04-22T19:22:12.463Z,14.02
2023-04-22T19:24:39.856Z,16.90
2023-04-22T19:27:12.525Z,17.20
2023-04-22T19:29:41.569Z,14.50
2023-04-22T19:32:12.397Z,19.70
2023-04-22T19:34:39.825Z,15.48
2023-04-22T19:37:08.266Z,18.20
2023-04-22T19:39:35.977Z,13.18
2023-04-22T19:42:06.163Z,15.55
2023-04-22T19:44:33.374Z,31.48
2023-04-22T19:47:01.383Z,31.02
2023-04-22T19:49:31.120Z,26.77
2023-04-22T19:52:01.079Z,27.40
2023-04-22T19:54:30.444Z,27.90
2023-04-22T19:56:58.564Z,26.92
2023-04-22T19:59:28.000Z,26.10
2023-04-22T20:01:55.489Z,24.17
2023-04-22T20:04:23.181Z,24.20
2023-04-22T20:06:51.797Z,20.67
2023-04-22T20:09:19.294Z,23.60
2023-04-22T20:11:47.187Z,21.60
2023-04-22T20:14:14.479Z,27.13
2023-04-22T20:16:42.346Z,22.87
2023-04-22T20:19:11.377Z,18.65
2023-04-22T20:21:39.932Z,20.83
2023-04-22T20:24:08.281Z,23.75
2023-04-22T20:26:35.891Z,22.60
2023-04-22T20:29:03.452Z,20.85
2023-04-22T20:31:30.856Z,18.58
2023-04-22T20:33:58.268Z,20.95
2023-04-22T20:36:26.496Z,16.43
2023-04-22T20:38:55.519Z,19.15
2023-04-22T20:41:24.641Z,16.20
2023-04-22T20:43:52.481Z,20.23
2023-04-22T20:46:22.755Z,21.02
2023-04-22T20:48:50.151Z,17.83
2023-04-22T20:51:17.393Z,16.88
2023-04-22T20:53:45.414Z,21.48
2023-04-22T20:56:13.286Z,17.85
2023-04-22T20:58:40.502Z,16.65
2023-04-22T21:01:08.938Z,15.15
2023-04-22T21:03:38.021Z,15.77
2023-04-22T21:06:05.807Z,15.90
2023-04-22T21:08:34.839Z,16.20
2023-04-22T21:11:02.204Z,15.93
2023-04-22T21:13:29.548Z,14.10
2023-04-22T21:16:02.127Z,16.27
2023-04-22T21:18:29.909Z,16.05
2023-04-22T21:20:57.442Z,12.13
2023-04-22T21:23:25.413Z,19.58
2023-04-22T21:25:55.017Z,14.05
2023-04-22T21:28:22.619Z,12.68
2023-04-22T21:30:50.154Z,18.83
2023-04-22T21:33:17.447Z,13.15
2023-04-22T21:35:44.695Z,13.70
2023-04-22T21:38:12.271Z,13.93
2023-04-22T21:40:39.508Z,14.57
2023-04-22T21:43:06.864Z,16.33
2023-04-22T21:45:34.191Z,14.43
2023-04-22T21:48:01.483Z,14.07
2023-04-22T21:50:30.221Z,12.23
2023-04-22T21:52:57.914Z,14.32
2023-04-22T21:55:25.185Z,12.93
2023-04-22T21:57:52.581Z,15.02
2023-04-22T22:00:19.819Z,13.13
2023-04-22T22:02:47.792Z,14.80
2023-04-22T22:05:15.985Z,10.93
2023-04-22T22:07:44.779Z,12.82
2023-04-22T22:10:18.965Z,10.65
2023-04-22T22:12:46.989Z,13.27
2023-04-22T22:15:16.145Z,12.55
2023-04-22T22:17:44.071Z,11.77
2023-04-22T22:20:12.355Z,12.50
2023-04-22T22:25:08.161Z,9.27
2023-04-22T22:27:35.744Z,11.55
2023-04-22T22:30:03.196Z,9.60
2023-04-22T22:32:30.980Z,10.80
2023-04-22T22:34:59.132Z,9.85
2023-04-22T22:39:53.532Z,10.40
2023-04-22T22:42:20.729Z,9.93
2023-04-22T22:44:47.912Z,11.60
2023-04-22T22:47:17.544Z,11.93
2023-04-22T22:49:45.056Z,9.15
2023-04-22T22:52:12.715Z,9.93
2023-04-22T22:54:41.113Z,10.65
2023-04-22T22:57:09.097Z,12.43
2023-04-22T22:59:37.553Z,10.25
2023-04-22T23:02:05.459Z,12.50
2023-04-22T23:04:32.933Z,12.30
2023-04-22T23:07:00.318Z,8.85
2023-04-22T23:09:27.595Z,8.40
2023-04-22T23:11:55.544Z,9.93
2023-04-22T23:14:23.526Z,9.60
2023-04-22T23:16:51.134Z,10.75
2023-04-22T23:19:18.587Z,9.40
2023-04-22T23:21:46.848Z,9.32
2023-04-22T23:24:15.158Z,9.90
2023-04-22T23:26:42.945Z,8.48
2023-04-22T23:29:10.479Z,9.45
2023-04-22T23:31:37.760Z,9.48
2023-04-22T23:34:06.024Z,8.27
2023-04-22T23:36:36.487Z,9.15
2023-04-22T23:39:04.617Z,9.65
2023-04-22T23:41:31.930Z,8.82
2023-04-22T23:44:01.647Z,7.97
2023-04-22T23:46:28.910Z,8.55
2023-04-22T23:48:57.228Z,7.53
2023-04-22T23:51:24.835Z,8.38
2023-04-22T23:53:52.084Z,9.32
2023-04-22T23:56:21.199Z,8.60
2023-04-22T23:58:48.877Z,7.18
